createdAt,value
2023-02-25T00:02:11.264Z,91.70
2023-02-25T00:04:40.960Z,92.30
2023-02-25T00:07:09.340Z,91.70
2023-02-25T00:09:37.691Z,91.90
2023-02-25T00:12:06.238Z,91.90
2023-02-25T00:14:35.933Z,91.80
2023-02-25T00:17:04.358Z,92.10
2023-02-25T00:19:32.807Z,91.90
2023-02-25T00:22:01.693Z,91.80
2023-02-25T00:24:30.129Z,92.00
2023-02-25T00:26:58.476Z,92.00
2023-02-25T00:29:26.911Z,91.90
2023-02-25T00:31:56.752Z,91.60
2023-02-25T00:34:26.197Z,92.10
2023-02-25T00:36:54.631Z,91.70
2023-02-25T00:39:24.030Z,92.00
2023-02-25T00:41:52.342Z,91.90
2023-02-25T00:44:20.681Z,91.80
2023-02-25T00:46:49.080Z,91.70
2023-02-25T00:49:30.600Z,91.60
2023-02-25T00:52:00.682Z,91.80
2023-02-25T00:54:29.029Z,91.70
2023-02-25T00:56:57.398Z,92.10
2023-02-25T00:59:25.708Z,91.70
2023-02-25T01:01:54.101Z,91.60
2023-02-25T01:04:23.865Z,91.70
2023-02-25T01:06:54.072Z,91.60
2023-02-25T01:09:22.435Z,91.60
2023-02-25T01:11:51.012Z,91.90
2023-02-25T01:14:20.341Z,91.70
2023-02-25T01:16:49.134Z,91.80
2023-02-25T01:19:19.751Z,91.60
2023-02-25T01:21:51.634Z,91.80
2023-02-25T01:24:21.896Z,91.50
2023-02-25T01:26:51.344Z,91.60
2023-02-25T01:29:20.744Z,91.70
2023-02-25T01:31:49.263Z,91.50
2023-02-25T01:34:18.570Z,91.40
2023-02-25T01:36:47.334Z,91.50
2023-02-25T01:39:18.015Z,91.40
2023-02-25T01:41:48.699Z,91.70
2023-02-25T01:44:18.356Z,91.50
2023-02-25T01:46:47.390Z,91.50
2023-02-25T01:49:17.634Z,91.60
2023-02-25T01:51:47.070Z,91.40
2023-02-25T01:54:17.904Z,91.80
2023-02-25T01:56:49.358Z,91.80
2023-02-25T01:59:17.811Z,91.60
2023-02-25T02:01:46.167Z,91.20
2023-02-25T02:04:15.752Z,91.80
2023-02-25T02:06:44.890Z,91.80
2023-02-25T02:09:15.390Z,91.50
2023-02-25T02:11:45.070Z,91.50
2023-02-25T02:14:15.408Z,91.60
2023-02-25T02:17:06.555Z,91.50
2023-02-25T02:19:44.583Z,91.60
2023-02-25T02:22:14.393Z,91.90
2023-02-25T02:25:13.303Z,92.00
2023-02-25T02:27:53.187Z,91.70
2023-02-25T02:30:35.762Z,91.80
2023-02-25T02:33:10.093Z,91.80
2023-02-25T02:35:41.189Z,91.60
2023-02-25T02:38:13.241Z,91.70
2023-02-25T02:40:44.593Z,91.40
2023-02-25T02:43:19.678Z,91.80
2023-02-25T02:45:50.415Z,91.90
2023-02-25T02:48:21.785Z,91.80
2023-02-25T02:50:52.454Z,91.90
2023-02-25T02:53:23.566Z,91.90
2023-02-25T02:55:55.000Z,92.10
2023-02-25T02:58:24.440Z,91.70
2023-02-25T03:00:56.499Z,91.90
2023-02-25T03:03:36.028Z,92.00
2023-02-25T03:06:06.063Z,91.80
2023-02-25T03:08:36.268Z,91.80
2023-02-25T03:11:05.891Z,91.60
2023-02-25T03:13:34.239Z,91.40
2023-02-25T03:16:02.640Z,91.80
2023-02-25T03:18:34.387Z,91.60
2023-02-25T03:21:03.085Z,91.50
2023-02-25T03:23:32.537Z,91.50
2023-02-25T03:26:06.427Z,91.50
2023-02-25T03:28:35.365Z,91.20
2023-02-25T03:31:07.220Z,91.70
2023-02-25T03:33:40.503Z,91.80
2023-02-25T03:36:11.100Z,91.80
2023-02-25T03:38:40.452Z,91.40
2023-02-25T03:41:08.813Z,91.30
2023-02-25T03:43:38.612Z,91.50
2023-02-25T03:46:07.077Z,91.50
2023-02-25T03:48:37.271Z,91.40
2023-02-25T03:51:06.779Z,91.60
2023-02-25T03:53:35.575Z,91.70
2023-02-25T03:56:05.695Z,91.30
2023-02-25T03:58:34.696Z,91.20
2023-02-25T04:01:04.686Z,91.40
2023-02-25T04:03:33.086Z,91.20
2023-02-25T04:06:02.797Z,90.90
2023-02-25T04:08:31.127Z,91.10
2023-02-25T04:10:59.415Z,91.10
2023-02-25T04:13:27.736Z,91.40
2023-02-25T04:15:56.465Z,91.20
2023-02-25T04:18:26.603Z,90.90
2023-02-25T04:20:54.963Z,91.30
2023-02-25T04:23:24.764Z,91.20
2023-02-25T04:25:53.108Z,91.00
2023-02-25T04:28:21.416Z,91.20
2023-02-25T04:30:50.105Z,91.10
2023-02-25T04:33:18.495Z,91.20
2023-02-25T04:35:46.856Z,91.20
2023-02-25T04:38:15.231Z,91.20
2023-02-25T04:40:44.940Z,91.00
2023-02-25T04:43:13.252Z,91.00
2023-02-25T04:45:41.612Z,90.60
2023-02-25T04:48:09.933Z,91.10
2023-02-25T04:50:38.241Z,90.90
2023-02-25T04:53:08.506Z,91.50
2023-02-25T04:55:37.245Z,91.00
2023-02-25T04:58:06.930Z,91.10
2023-02-25T05:00:35.254Z,91.20
2023-02-25T05:03:03.607Z,91.20
2023-02-25T05:05:31.884Z,91.20
2023-02-25T05:08:00.226Z,91.40
2023-02-25T05:10:28.539Z,91.20
2023-02-25T05:12:56.838Z,91.20
2023-02-25T05:15:26.880Z,91.00
2023-02-25T05:17:55.230Z,91.10
2023-02-25T05:20:24.066Z,90.90
2023-02-25T05:22:52.361Z,91.10
2023-02-25T05:25:20.641Z,91.00
2023-02-25T05:27:48.950Z,90.90
2023-02-25T05:30:18.772Z,91.10
2023-02-25T05:32:48.518Z,91.00
2023-02-25T05:35:17.168Z,91.10
2023-02-25T05:37:45.529Z,90.90
2023-02-25T05:40:14.775Z,91.00
2023-02-25T05:42:43.132Z,90.90
2023-02-25T05:45:12.139Z,91.10
2023-02-25T05:47:40.427Z,90.90
2023-02-25T05:50:11.446Z,91.10
2023-02-25T05:52:39.788Z,91.30
2023-02-25T05:55:09.859Z,91.30
2023-02-25T05:57:38.218Z,91.30
2023-02-25T06:00:09.656Z,90.90
2023-02-25T06:02:38.180Z,91.50
2023-02-25T06:05:07.825Z,91.50
2023-02-25T06:07:37.639Z,91.50
2023-02-25T06:10:06.814Z,91.50
2023-02-25T06:12:36.660Z,91.60
2023-02-25T06:15:05.258Z,91.70
2023-02-25T06:17:33.591Z,91.70
2023-02-25T06:20:02.225Z,91.60
2023-02-25T06:22:30.552Z,91.60
2023-02-25T06:25:00.574Z,91.60
2023-02-25T06:27:29.890Z,91.70
2023-02-25T06:30:00.276Z,91.70
2023-02-25T06:32:29.027Z,91.60
2023-02-25T06:34:57.752Z,91.70
2023-02-25T06:37:26.075Z,91.70
2023-02-25T06:39:54.496Z,91.50
2023-02-25T06:42:24.420Z,91.60
2023-02-25T06:44:52.961Z,91.60
2023-02-25T06:47:23.032Z,91.60
2023-02-25T06:49:51.405Z,91.80
2023-02-25T06:52:19.752Z,91.80
2023-02-25T06:54:48.114Z,91.70
2023-02-25T06:57:16.486Z,91.70
2023-02-25T06:59:46.191Z,91.70
2023-02-25T07:02:14.504Z,91.70
2023-02-25T07:04:44.115Z,91.70
2023-02-25T07:07:12.625Z,91.70
2023-02-25T07:09:41.041Z,91.80
2023-02-25T07:12:09.391Z,91.60
2023-02-25T07:14:37.832Z,91.60
2023-02-25T07:17:07.486Z,91.70
2023-02-25T07:19:38.962Z,91.70
2023-02-25T07:22:09.911Z,91.70
2023-02-25T07:24:38.711Z,91.70
2023-02-25T07:27:08.747Z,91.70
2023-02-25T07:29:37.061Z,91.80
2023-02-25T07:32:08.950Z,91.80
2023-02-25T07:34:39.025Z,91.70
2023-02-25T07:37:07.336Z,91.70
2023-02-25T07:39:35.686Z,91.80
2023-02-25T07:42:04.165Z,91.70
2023-02-25T07:44:33.872Z,91.80
2023-02-25T07:47:02.358Z,91.90
2023-02-25T07:49:32.072Z,91.80
2023-02-25T07:52:00.965Z,91.70
2023-02-25T07:54:29.283Z,91.70
2023-02-25T07:56:57.632Z,91.70
2023-02-25T07:59:26.044Z,91.70
2023-02-25T08:01:54.339Z,91.60
2023-02-25T08:04:22.770Z,91.50
2023-02-25T08:06:52.839Z,91.50
2023-02-25T08:09:21.174Z,91.50
2023-02-25T08:11:49.500Z,91.50
2023-02-25T08:14:17.945Z,91.40
2023-02-25T08:16:46.247Z,91.40
2023-02-25T08:19:14.585Z,91.60
2023-02-25T08:21:43.027Z,91.40
2023-02-25T08:24:12.697Z,91.40
2023-02-25T08:26:41.104Z,91.40
2023-02-25T08:29:09.465Z,91.30
2023-02-25T08:31:37.883Z,91.30
2023-02-25T08:34:06.294Z,92.40
2023-02-25T08:36:36.090Z,93.10
2023-02-25T08:39:04.436Z,93.40
2023-02-25T08:41:34.167Z,93.00
2023-02-25T08:44:02.516Z,92.90
2023-02-25T08:46:32.000Z,92.80
2023-02-25T08:49:00.451Z,92.90
2023-02-25T08:51:33.825Z,92.80
2023-02-25T08:54:03.932Z,92.70
2023-02-25T08:56:35.062Z,92.40
2023-02-25T08:59:03.588Z,92.10
2023-02-25T09:01:44.624Z,92.10
2023-02-25T09:04:13.794Z,91.80
2023-02-25T09:06:42.196Z,91.80
2023-02-25T09:09:11.597Z,91.50
2023-02-25T09:11:41.842Z,91.60
2023-02-25T09:14:10.567Z,91.40
2023-02-25T09:16:38.990Z,91.40
2023-02-25T09:19:07.496Z,91.30
2023-02-25T09:21:37.035Z,91.20
2023-02-25T09:24:05.872Z,91.20
2023-02-25T09:26:34.275Z,91.10
2023-02-25T09:29:04.181Z,91.20
2023-02-25T09:31:33.674Z,91.20
2023-02-25T09:34:04.583Z,91.10
2023-02-25T09:36:34.556Z,91.00
2023-02-25T09:39:02.963Z,91.00
2023-02-25T09:41:33.256Z,91.00
2023-02-25T09:44:06.378Z,91.00
2023-02-25T09:46:35.718Z,91.00
2023-02-25T09:49:07.014Z,91.00
2023-02-25T09:51:37.441Z,91.00
2023-02-25T09:54:11.969Z,91.00
2023-02-25T09:56:40.289Z,91.10
2023-02-25T09:59:12.957Z,91.00
2023-02-25T10:01:45.427Z,91.00
2023-02-25T10:04:16.918Z,91.10
2023-02-25T10:06:47.314Z,91.10
2023-02-25T10:09:19.976Z,91.00
2023-02-25T10:11:53.415Z,91.10
2023-02-25T10:14:43.893Z,90.70
2023-02-25T10:17:16.439Z,91.10
2023-02-25T10:19:52.364Z,91.20
2023-02-25T10:22:31.899Z,91.30
2023-02-25T10:25:02.118Z,90.80
2023-02-25T10:27:33.086Z,91.20
2023-02-25T10:30:05.666Z,90.80
2023-02-25T10:32:35.388Z,91.00
2023-02-25T10:35:13.193Z,90.60
2023-02-25T10:37:41.555Z,90.40
2023-02-25T10:40:15.582Z,90.30
2023-02-25T10:42:46.075Z,90.20
2023-02-25T10:45:21.327Z,90.30
2023-02-25T10:47:52.237Z,90.40
2023-02-25T10:50:25.828Z,89.80
2023-02-25T10:53:02.894Z,90.10
2023-02-25T10:55:42.191Z,90.20
2023-02-25T10:58:23.368Z,90.30
2023-02-25T11:00:57.661Z,90.40
2023-02-25T11:03:26.048Z,90.20
2023-02-25T11:05:55.058Z,90.20
2023-02-25T11:08:29.317Z,90.70
2023-02-25T11:11:02.218Z,91.50
2023-02-25T11:13:32.850Z,91.30
2023-02-25T11:16:04.662Z,91.00
2023-02-25T11:18:33.237Z,90.90
2023-02-25T11:21:02.775Z,90.80
2023-02-25T11:23:33.232Z,91.10
2023-02-25T11:26:01.723Z,90.90
2023-02-25T11:28:31.640Z,90.80
2023-02-25T11:31:10.152Z,90.50
2023-02-25T11:33:39.492Z,90.50
2023-02-25T11:36:08.804Z,90.60
2023-02-25T11:38:37.973Z,90.30
2023-02-25T11:41:11.856Z,90.50
2023-02-25T11:43:40.769Z,90.20
2023-02-25T11:46:12.927Z,90.30
2023-02-25T11:48:48.083Z,90.20
2023-02-25T11:51:20.976Z,90.50
2023-02-25T11:54:02.941Z,90.90
2023-02-25T11:56:32.328Z,90.40
2023-02-25T11:59:13.432Z,90.60
2023-02-25T12:02:04.149Z,90.40
2023-02-25T12:04:50.562Z,90.60
2023-02-25T12:07:59.826Z,90.80
2023-02-25T12:11:15.809Z,90.90
2023-02-25T12:14:08.987Z,91.20
2023-02-25T12:17:12.775Z,91.10
2023-02-25T12:20:14.496Z,91.00
2023-02-25T12:23:14.647Z,90.90
2023-02-25T12:25:44.621Z,90.80
2023-02-25T12:28:49.732Z,91.00
2023-02-25T12:32:00.299Z,90.90
2023-02-25T12:34:44.247Z,91.20
2023-02-25T12:37:22.824Z,90.90
2023-02-25T12:40:09.918Z,90.80
2023-02-25T12:42:45.881Z,91.00
2023-02-25T12:45:25.401Z,90.80
2023-02-25T12:48:08.064Z,91.00
2023-02-25T12:50:46.388Z,90.90
2023-02-25T12:53:27.405Z,90.90
2023-02-25T12:56:08.809Z,90.80
2023-02-25T12:58:41.862Z,90.90
2023-02-25T13:01:29.166Z,90.80
2023-02-25T13:04:29.960Z,90.80
2023-02-25T13:07:31.793Z,90.70
2023-02-25T13:10:06.930Z,90.50
2023-02-25T13:12:57.752Z,90.50
2023-02-25T13:15:27.625Z,90.50
2023-02-25T13:18:07.695Z,90.30
2023-02-25T13:20:55.034Z,90.40
2023-02-25T13:23:45.071Z,90.10
2023-02-25T13:26:41.972Z,89.50
2023-02-25T13:29:25.725Z,89.60
2023-02-25T13:31:57.962Z,88.60
2023-02-25T13:34:33.691Z,88.40
2023-02-25T13:37:17.696Z,88.10
2023-02-25T13:39:54.304Z,88.60
2023-02-25T13:42:32.045Z,88.60
2023-02-25T13:45:26.001Z,88.00
2023-02-25T13:48:01.571Z,89.00
2023-02-25T13:51:02.434Z,87.80
2023-02-25T13:53:59.485Z,87.90
2023-02-25T13:56:51.103Z,87.90
2023-02-25T13:59:44.245Z,87.40
2023-02-25T14:02:24.445Z,87.50
2023-02-25T14:05:09.792Z,86.20
2023-02-25T14:07:48.954Z,87.10
2023-02-25T14:10:23.085Z,87.20
2023-02-25T14:13:26.479Z,86.00
2023-02-25T14:15:59.869Z,86.60
2023-02-25T14:18:44.395Z,86.50
2023-02-25T14:21:58.036Z,86.70
2023-02-25T14:24:30.290Z,86.60
2023-02-25T14:27:02.468Z,86.60
2023-02-25T14:29:37.820Z,86.50
2023-02-25T14:32:17.796Z,86.30
2023-02-25T14:34:55.912Z,87.10
2023-02-25T14:37:31.653Z,87.30
2023-02-25T14:40:11.669Z,86.90
2023-02-25T14:42:57.249Z,86.10
2023-02-25T14:45:28.880Z,85.00
2023-02-25T14:47:59.755Z,85.70
2023-02-25T14:50:30.645Z,85.40
2023-02-25T14:53:34.418Z,84.00
2023-02-25T14:56:20.034Z,83.70
2023-02-25T14:59:07.532Z,83.60
2023-02-25T15:02:09.760Z,84.40
2023-02-25T15:05:17.826Z,83.20
2023-02-25T15:08:05.582Z,83.10
2023-02-25T15:10:37.285Z,83.40
2023-02-25T15:13:20.016Z,82.70
2023-02-25T15:15:58.335Z,82.80
2023-02-25T15:18:58.853Z,82.80
2023-02-25T15:21:40.857Z,82.40
2023-02-25T15:24:11.418Z,82.50
2023-02-25T15:26:44.937Z,83.10
2023-02-25T15:29:38.107Z,83.30
2023-02-25T15:32:15.322Z,83.40
2023-02-25T15:34:58.383Z,83.10
2023-02-25T15:37:31.883Z,83.50
2023-02-25T15:40:20.249Z,83.70
2023-02-25T15:42:50.279Z,83.60
2023-02-25T15:45:40.710Z,82.10
2023-02-25T15:48:31.470Z,82.10
2023-02-25T15:51:02.318Z,83.90
2023-02-25T15:53:46.065Z,82.90
2023-02-25T15:56:25.272Z,82.20
2023-02-25T15:58:53.905Z,82.10
2023-02-25T16:01:42.608Z,83.80
2023-02-25T16:04:44.220Z,82.70
2023-02-25T16:07:18.564Z,83.30
2023-02-25T16:09:50.657Z,83.10
2023-02-25T16:12:19.024Z,83.20
2023-02-25T16:14:47.418Z,82.90
2023-02-25T16:17:17.923Z,85.70
2023-02-25T16:19:48.402Z,86.70
2023-02-25T16:22:19.038Z,86.50
2023-02-25T16:24:49.136Z,86.40
2023-02-25T16:27:23.313Z,85.70
2023-02-25T16:29:55.548Z,85.80
2023-02-25T16:32:29.068Z,86.40
2023-02-25T16:35:00.335Z,86.70
2023-02-25T16:37:32.994Z,86.00
2023-02-25T16:40:01.651Z,86.00
2023-02-25T16:42:30.362Z,85.60
2023-02-25T16:45:00.203Z,85.60
2023-02-25T16:47:29.607Z,84.70
2023-02-25T16:49:58.533Z,83.70
2023-02-25T16:52:30.352Z,82.70
2023-02-25T16:55:00.288Z,82.20
2023-02-25T16:57:28.625Z,83.00
2023-02-25T17:00:08.506Z,82.50
2023-02-25T17:02:36.869Z,82.50
2023-02-25T17:05:05.651Z,82.10
2023-02-25T17:07:35.358Z,81.90
2023-02-25T17:10:05.042Z,82.10
2023-02-25T17:12:36.799Z,83.00
2023-02-25T17:15:06.822Z,83.30
2023-02-25T17:17:36.685Z,82.70
2023-02-25T17:20:06.628Z,83.00
2023-02-25T17:22:39.492Z,83.20
2023-02-25T17:25:10.877Z,84.60
2023-02-25T17:27:39.383Z,84.10
2023-02-25T17:30:27.338Z,83.70
2023-02-25T17:32:59.070Z,85.00
2023-02-25T17:35:28.155Z,84.90
2023-02-25T17:37:58.026Z,85.90
2023-02-25T17:40:27.316Z,86.10
2023-02-25T17:43:17.006Z,84.80
2023-02-25T17:45:47.203Z,84.80
2023-02-25T17:48:17.157Z,84.50
2023-02-25T17:50:45.507Z,84.90
2023-02-25T17:53:39.325Z,85.30
2023-02-25T17:56:24.620Z,85.00
2023-02-25T17:58:53.665Z,85.40
2023-02-25T18:01:24.390Z,85.70
2023-02-25T18:03:52.976Z,85.80
2023-02-25T18:06:35.500Z,85.20
2023-02-25T18:09:05.722Z,85.60
2023-02-25T18:11:35.204Z,85.50
2023-02-25T18:14:05.069Z,86.50
2023-02-25T18:16:38.553Z,86.00
2023-02-25T18:19:32.460Z,85.30
2023-02-25T18:22:00.791Z,86.40
2023-02-25T18:24:32.980Z,85.90
2023-02-25T18:27:24.495Z,85.40
2023-02-25T18:29:52.868Z,86.40
2023-02-25T18:32:21.284Z,85.30
2023-02-25T18:34:49.796Z,86.90
2023-02-25T18:37:18.461Z,85.50
2023-02-25T18:39:48.874Z,85.70
2023-02-25T18:42:17.669Z,86.60
2023-02-25T18:44:46.588Z,86.00
2023-02-25T18:47:16.648Z,86.30
2023-02-25T18:49:45.772Z,85.90
2023-02-25T18:52:18.315Z,86.60
2023-02-25T18:54:48.154Z,86.20
2023-02-25T18:57:25.585Z,86.80
2023-02-25T18:59:54.128Z,86.30
2023-02-25T19:02:28.153Z,86.40
2023-02-25T19:04:56.563Z,87.10
2023-02-25T19:07:26.057Z,86.40
2023-02-25T19:09:56.234Z,86.80
2023-02-25T19:12:24.711Z,86.40
2023-02-25T19:14:56.443Z,86.40
2023-02-25T19:17:24.777Z,86.60
2023-02-25T19:19:53.112Z,86.60
2023-02-25T19:22:21.473Z,86.60
2023-02-25T19:24:49.912Z,86.60
2023-02-25T19:27:21.706Z,86.90
2023-02-25T19:29:50.546Z,86.90
2023-02-25T19:32:19.225Z,87.40
2023-02-25T19:34:47.793Z,87.30
2023-02-25T19:37:17.047Z,87.10
2023-02-25T19:39:45.415Z,86.60
2023-02-25T19:42:13.904Z,87.00
2023-02-25T19:44:43.620Z,87.30
2023-02-25T19:47:11.956Z,86.80
2023-02-25T19:49:40.397Z,86.20
2023-02-25T19:52:08.705Z,85.90
2023-02-25T19:54:37.237Z,86.50
2023-02-25T19:57:05.600Z,86.40
2023-02-25T19:59:33.936Z,86.80
2023-02-25T20:02:03.618Z,86.20
2023-02-25T20:04:32.087Z,86.50
2023-02-25T20:07:00.447Z,86.60
2023-02-25T20:09:28.837Z,87.50
2023-02-25T20:11:57.216Z,87.60
2023-02-25T20:14:27.968Z,86.40
2023-02-25T20:16:56.972Z,86.80
2023-02-25T20:19:27.953Z,87.00
2023-02-25T20:21:56.263Z,87.60
2023-02-25T20:24:24.657Z,88.00
2023-02-25T20:26:54.403Z,87.00
2023-02-25T20:29:25.953Z,87.10
2023-02-25T20:31:54.425Z,87.10
2023-02-25T20:34:23.507Z,87.00
2023-02-25T20:36:55.549Z,86.80
2023-02-25T20:39:34.387Z,86.50
2023-02-25T20:42:03.583Z,87.00
2023-02-25T20:44:32.228Z,86.90
2023-02-25T20:47:01.374Z,87.60
2023-02-25T20:49:29.985Z,86.80
2023-02-25T20:52:00.384Z,86.60
2023-02-25T20:54:28.744Z,87.00
2023-02-25T20:56:57.133Z,86.00
2023-02-25T20:59:25.712Z,87.60
2023-02-25T21:01:54.116Z,86.60
2023-02-25T21:04:22.490Z,87.20
2023-02-25T21:06:50.794Z,86.50
2023-02-25T21:09:20.479Z,86.60
2023-02-25T21:11:48.956Z,86.30
2023-02-25T21:14:17.320Z,87.00
2023-02-25T21:16:54.383Z,86.80
2023-02-25T21:19:23.333Z,87.00
2023-02-25T21:21:53.714Z,87.70
2023-02-25T21:24:29.367Z,87.60
2023-02-25T21:26:59.185Z,87.50
2023-02-25T21:29:27.801Z,86.30
2023-02-25T21:31:56.702Z,86.60
2023-02-25T21:34:25.575Z,86.00
2023-02-25T21:36:54.148Z,86.90
2023-02-25T21:39:24.774Z,85.90
2023-02-25T21:41:53.320Z,86.80
2023-02-25T21:44:22.196Z,86.60
2023-02-25T21:46:50.574Z,86.30
2023-02-25T21:49:19.166Z,86.50
2023-02-25T21:51:51.154Z,87.10
2023-02-25T21:54:19.581Z,87.20
2023-02-25T21:56:51.531Z,86.60
2023-02-25T21:59:19.980Z,86.80
2023-02-25T22:01:48.445Z,86.50
2023-02-25T22:04:17.844Z,86.50
2023-02-25T22:06:48.709Z,86.30
2023-02-25T22:09:17.941Z,86.80
2023-02-25T22:11:46.255Z,87.60
2023-02-25T22:14:15.999Z,85.70
2023-02-25T22:16:47.088Z,86.60
2023-02-25T22:19:15.396Z,86.30
2023-02-25T22:21:43.764Z,86.80
2023-02-25T22:24:12.146Z,86.50
2023-02-25T22:26:40.566Z,86.60
2023-02-25T22:29:09.894Z,86.90
2023-02-25T22:31:39.757Z,87.60
2023-02-25T22:34:08.436Z,86.80
2023-02-25T22:36:36.808Z,87.60
2023-02-25T22:39:05.722Z,88.70
2023-02-25T22:41:34.241Z,89.80
2023-02-25T22:44:02.923Z,88.80
2023-02-25T22:46:31.992Z,89.80
2023-02-25T22:49:01.737Z,89.10
2023-02-25T22:51:32.440Z,88.50
2023-02-25T22:54:01.023Z,88.40
2023-02-25T22:56:29.549Z,89.00
2023-02-25T22:59:01.078Z,88.60
2023-02-25T23:01:32.066Z,88.40
2023-02-25T23:04:01.787Z,88.40
2023-02-25T23:06:42.904Z,88.50
2023-02-25T23:09:12.163Z,88.10
2023-02-25T23:11:41.342Z,88.00
2023-02-25T23:14:09.794Z,88.50
2023-02-25T23:16:40.195Z,88.10
2023-02-25T23:19:10.635Z,87.70
2023-02-25T23:21:39.846Z,87.80
2023-02-25T23:24:08.905Z,87.70
2023-02-25T23:26:38.843Z,87.60
2023-02-25T23:29:08.986Z,87.60
2023-02-25T23:31:38.421Z,87.70
2023-02-25T23:34:08.732Z,87.00
2023-02-25T23:36:38.628Z,87.40
2023-02-25T23:39:07.453Z,88.00
2023-02-25T23:41:36.211Z,87.20
2023-02-25T23:44:04.635Z,88.60
2023-02-25T23:46:33.069Z,88.00
2023-02-25T23:49:02.574Z,87.00
2023-02-25T23:51:31.233Z,87.70
2023-02-25T23:54:01.634Z,87.20
2023-02-25T23:56:30.855Z,87.50
2023-02-25T23:58:59.308Z,86.60
